sensor_id;sensor_type;location;lat;lon;timestamp;P1;durP1;ratioP1;P2;durP2;ratioP2
77701;SDS011;66868;42.708;23.404;2023-04-24T00:00:39;4.65;;;4.22;;
77701;SDS011;66868;42.708;23.404;2023-04-24T00:03:05;10.05;;;5.35;;
77701;SDS011;66868;42.708;23.404;2023-04-24T00:05:31;6.15;;;4.82;;
77701;SDS011;66868;42.708;23.404;2023-04-24T00:07:57;5.32;;;4.85;;
77701;SDS011;66868;42.708;23.404;2023-04-24T00:10:23;8.57;;;5.72;;
77701;SDS011;66868;42.708;23.404;2023-04-24T00:12:48;7.15;;;5.82;;
77701;SDS011;66868;42.708;23.404;2023-04-24T00:15:14;5.50;;;5.03;;
77701;SDS011;66868;42.708;23.404;2023-04-24T00:17:39;7.18;;;5.30;;
77701;SDS011;66868;42.708;23.404;2023-04-24T00:20:05;9.30;;;5.35;;
77701;SDS011;66868;42.708;23.404;2023-04-24T00:22:32;8.63;;;5.43;;
77701;SDS011;66868;42.708;23.404;2023-04-24T00:24:57;9.85;;;5.43;;
77701;SDS011;66868;42.708;23.404;2023-04-24T00:27:23;5.68;;;5.32;;
77701;SDS011;66868;42.708;23.404;2023-04-24T00:29:48;6.22;;;5.72;;
77701;SDS011;66868;42.708;23.404;2023-04-24T00:32:14;5.78;;;5.28;;
77701;SDS011;66868;42.708;23.404;2023-04-24T00:34:47;8.23;;;6.10;;
77701;SDS011;66868;42.708;23.404;2023-04-24T00:37:12;5.35;;;5.05;;
77701;SDS011;66868;42.708;23.404;2023-04-24T00:39:37;6.70;;;6.10;;
77701;SDS011;66868;42.708;23.404;2023-04-24T00:42:03;6.03;;;5.55;;
77701;SDS011;66868;42.708;23.404;2023-04-24T00:44:30;5.70;;;5.00;;
77701;SDS011;66868;42.708;23.404;2023-04-24T00:46:56;11.68;;;5.15;;
77701;SDS011;66868;42.708;23.404;2023-04-24T00:49:24;9.90;;;4.88;;
77701;SDS011;66868;42.708;23.404;2023-04-24T00:51:49;5.60;;;5.10;;
77701;SDS011;66868;42.708;23.404;2023-04-24T00:54:16;5.75;;;5.22;;
77701;SDS011;66868;42.708;23.404;2023-04-24T00:56:42;5.32;;;4.85;;
77701;SDS011;66868;42.708;23.404;2023-04-24T00:59:09;8.20;;;5.22;;
77701;SDS011;66868;42.708;23.404;2023-04-24T01:01:35;7.40;;;5.03;;
77701;SDS011;66868;42.708;23.404;2023-04-24T01:04:00;5.65;;;5.22;;
77701;SDS011;66868;42.708;23.404;2023-04-24T01:06:27;5.50;;;5.10;;
77701;SDS011;66868;42.708;23.404;2023-04-24T01:08:54;5.47;;;4.75;;
77701;SDS011;66868;42.708;23.404;2023-04-24T01:11:23;5.50;;;5.10;;
77701;SDS011;66868;42.708;23.404;2023-04-24T01:13:49;6.18;;;5.72;;
77701;SDS011;66868;42.708;23.404;2023-04-24T01:16:15;5.47;;;5.10;;
77701;SDS011;66868;42.708;23.404;2023-04-24T01:18:42;7.10;;;5.60;;
77701;SDS011;66868;42.708;23.404;2023-04-24T01:21:08;5.50;;;5.20;;
77701;SDS011;66868;42.708;23.404;2023-04-24T01:23:34;5.53;;;5.03;;
77701;SDS011;66868;42.708;23.404;2023-04-24T01:26:00;7.38;;;5.53;;
77701;SDS011;66868;42.708;23.404;2023-04-24T01:28:26;10.15;;;5.65;;
77701;SDS011;66868;42.708;23.404;2023-04-24T01:30:51;6.05;;;5.40;;
77701;SDS011;66868;42.708;23.404;2023-04-24T01:33:17;5.55;;;5.20;;
77701;SDS011;66868;42.708;23.404;2023-04-24T01:35:43;5.75;;;5.32;;
77701;SDS011;66868;42.708;23.404;2023-04-24T01:38:08;6.68;;;5.60;;
77701;SDS011;66868;42.708;23.404;2023-04-24T01:40:34;6.25;;;5.85;;
77701;SDS011;66868;42.708;23.404;2023-04-24T01:42:59;6.75;;;6.03;;
77701;SDS011;66868;42.708;23.404;2023-04-24T01:45:25;6.57;;;6.07;;
77701;SDS011;66868;42.708;23.404;2023-04-24T01:47:51;10.15;;;5.95;;
77701;SDS011;66868;42.708;23.404;2023-04-24T01:50:17;5.53;;;5.18;;
77701;SDS011;66868;42.708;23.404;2023-04-24T01:52:43;10.10;;;5.80;;
77701;SDS011;66868;42.708;23.404;2023-04-24T01:55:09;6.20;;;5.80;;
77701;SDS011;66868;42.708;23.404;2023-04-24T01:57:34;6.35;;;5.85;;
77701;SDS011;66868;42.708;23.404;2023-04-24T02:00:00;6.75;;;6.15;;
77701;SDS011;66868;42.708;23.404;2023-04-24T02:02:26;6.40;;;5.45;;
77701;SDS011;66868;42.708;23.404;2023-04-24T02:04:54;8.35;;;5.35;;
77701;SDS011;66868;42.708;23.404;2023-04-24T02:07:20;7.32;;;5.18;;
77701;SDS011;66868;42.708;23.404;2023-04-24T02:09:45;5.90;;;5.47;;
77701;SDS011;66868;42.708;23.404;2023-04-24T02:12:11;6.43;;;5.40;;
77701;SDS011;66868;42.708;23.404;2023-04-24T02:14:36;9.57;;;5.32;;
77701;SDS011;66868;42.708;23.404;2023-04-24T02:17:02;8.43;;;5.38;;
77701;SDS011;66868;42.708;23.404;2023-04-24T02:19:27;6.13;;;5.13;;
77701;SDS011;66868;42.708;23.404;2023-04-24T02:21:52;6.97;;;5.82;;
77701;SDS011;66868;42.708;23.404;2023-04-24T02:24:18;6.03;;;5.35;;
77701;SDS011;66868;42.708;23.404;2023-04-24T02:26:43;10.93;;;6.53;;
77701;SDS011;66868;42.708;23.404;2023-04-24T02:29:09;7.28;;;5.38;;
77701;SDS011;66868;42.708;23.404;2023-04-24T02:31:34;9.07;;;6.35;;
77701;SDS011;66868;42.708;23.404;2023-04-24T02:33:59;9.50;;;5.93;;
77701;SDS011;66868;42.708;23.404;2023-04-24T02:36:25;6.25;;;5.78;;
77701;SDS011;66868;42.708;23.404;2023-04-24T02:38:50;10.40;;;6.00;;
77701;SDS011;66868;42.708;23.404;2023-04-24T02:41:16;8.63;;;5.47;;
77701;SDS011;66868;42.708;23.404;2023-04-24T02:43:41;6.82;;;5.47;;
77701;SDS011;66868;42.708;23.404;2023-04-24T02:46:06;6.25;;;5.70;;
77701;SDS011;66868;42.708;23.404;2023-04-24T02:48:32;5.82;;;5.00;;
77701;SDS011;66868;42.708;23.404;2023-04-24T02:50:57;7.35;;;5.32;;
77701;SDS011;66868;42.708;23.404;2023-04-24T02:53:22;8.45;;;6.05;;
77701;SDS011;66868;42.708;23.404;2023-04-24T02:55:48;8.80;;;5.82;;
77701;SDS011;66868;42.708;23.404;2023-04-24T02:58:14;8.30;;;5.53;;
77701;SDS011;66868;42.708;23.404;2023-04-24T03:00:39;7.10;;;5.63;;
77701;SDS011;66868;42.708;23.404;2023-04-24T03:03:05;6.18;;;5.68;;
77701;SDS011;66868;42.708;23.404;2023-04-24T03:05:31;6.38;;;5.63;;
77701;SDS011;66868;42.708;23.404;2023-04-24T03:07:57;9.00;;;5.65;;
77701;SDS011;66868;42.708;23.404;2023-04-24T03:10:22;11.70;;;6.18;;
77701;SDS011;66868;42.708;23.404;2023-04-24T03:12:48;6.78;;;5.40;;
77701;SDS011;66868;42.708;23.404;2023-04-24T03:15:14;10.90;;;5.93;;
77701;SDS011;66868;42.708;23.404;2023-04-24T03:17:39;7.57;;;5.65;;
77701;SDS011;66868;42.708;23.404;2023-04-24T03:20:05;6.72;;;6.05;;
77701;SDS011;66868;42.708;23.404;2023-04-24T03:22:33;5.75;;;5.15;;
77701;SDS011;66868;42.708;23.404;2023-04-24T03:24:58;11.55;;;6.03;;
77701;SDS011;66868;42.708;23.404;2023-04-24T03:27:24;8.73;;;6.00;;
77701;SDS011;66868;42.708;23.404;2023-04-24T03:29:49;7.25;;;6.30;;
77701;SDS011;66868;42.708;23.404;2023-04-24T03:32:19;6.68;;;5.55;;
77701;SDS011;66868;42.708;23.404;2023-04-24T03:34:44;6.15;;;5.55;;
77701;SDS011;66868;42.708;23.404;2023-04-24T03:37:09;11.25;;;7.35;;
77701;SDS011;66868;42.708;23.404;2023-04-24T03:39:35;10.85;;;7.13;;
77701;SDS011;66868;42.708;23.404;2023-04-24T03:42:00;23.23;;;8.45;;
77701;SDS011;66868;42.708;23.404;2023-04-24T03:44:26;9.35;;;7.55;;
77701;SDS011;66868;42.708;23.404;2023-04-24T03:46:51;14.80;;;7.03;;
77701;SDS011;66868;42.708;23.404;2023-04-24T03:49:17;9.93;;;6.40;;
77701;SDS011;66868;42.708;23.404;2023-04-24T03:51:42;8.52;;;6.90;;
77701;SDS011;66868;42.708;23.404;2023-04-24T03:54:07;8.73;;;6.75;;
77701;SDS011;66868;42.708;23.404;2023-04-24T03:56:33;8.70;;;7.35;;
77701;SDS011;66868;42.708;23.404;2023-04-24T03:58:58;16.13;;;10.35;;
77701;SDS011;66868;42.708;23.404;2023-04-24T04:01:24;18.27;;;10.57;;
77701;SDS011;66868;42.708;23.404;2023-04-24T04:03:49;18.73;;;8.68;;
77701;SDS011;66868;42.708;23.404;2023-04-24T04:06:15;14.75;;;9.02;;
77701;SDS011;66868;42.708;23.404;2023-04-24T04:08:40;22.45;;;15.63;;
77701;SDS011;66868;42.708;23.404;2023-04-24T04:11:05;17.88;;;14.48;;
77701;SDS011;66868;42.708;23.404;2023-04-24T04:13:31;21.55;;;11.77;;
77701;SDS011;66868;42.708;23.404;2023-04-24T04:15:56;15.65;;;10.98;;
77701;SDS011;66868;42.708;23.404;2023-04-24T04:18:22;13.73;;;10.73;;
77701;SDS011;66868;42.708;23.404;2023-04-24T04:20:47;16.42;;;11.80;;
77701;SDS011;66868;42.708;23.404;2023-04-24T04:23:12;13.55;;;10.18;;
77701;SDS011;66868;42.708;23.404;2023-04-24T04:25:38;19.00;;;9.82;;
77701;SDS011;66868;42.708;23.404;2023-04-24T04:28:03;13.00;;;9.88;;
77701;SDS011;66868;42.708;23.404;2023-04-24T04:30:29;16.58;;;10.85;;
77701;SDS011;66868;42.708;23.404;2023-04-24T04:32:57;16.05;;;8.90;;
77701;SDS011;66868;42.708;23.404;2023-04-24T04:35:23;18.77;;;9.77;;
77701;SDS011;66868;42.708;23.404;2023-04-24T04:37:49;15.13;;;10.10;;
77701;SDS011;66868;42.708;23.404;2023-04-24T04:40:16;13.05;;;10.73;;
77701;SDS011;66868;42.708;23.404;2023-04-24T04:42:42;14.48;;;11.27;;
77701;SDS011;66868;42.708;23.404;2023-04-24T04:45:10;13.93;;;9.07;;
77701;SDS011;66868;42.708;23.404;2023-04-24T04:47:37;13.73;;;10.38;;
77701;SDS011;66868;42.708;23.404;2023-04-24T04:50:02;13.75;;;9.60;;
77701;SDS011;66868;42.708;23.404;2023-04-24T04:52:29;14.70;;;9.35;;
77701;SDS011;66868;42.708;23.404;2023-04-24T04:54:54;10.93;;;8.00;;
77701;SDS011;66868;42.708;23.404;2023-04-24T04:57:20;10.55;;;8.65;;
77701;SDS011;66868;42.708;23.404;2023-04-24T04:59:45;14.57;;;9.60;;
77701;SDS011;66868;42.708;23.404;2023-04-24T05:02:11;19.80;;;10.18;;
77701;SDS011;66868;42.708;23.404;2023-04-24T05:04:36;27.10;;;12.82;;
77701;SDS011;66868;42.708;23.404;2023-04-24T05:07:02;18.52;;;11.20;;
77701;SDS011;66868;42.708;23.404;2023-04-24T05:09:28;13.02;;;8.93;;
77701;SDS011;66868;42.708;23.404;2023-04-24T05:11:54;20.10;;;10.35;;
77701;SDS011;66868;42.708;23.404;2023-04-24T05:14:20;12.00;;;10.13;;
77701;SDS011;66868;42.708;23.404;2023-04-24T05:16:45;11.70;;;9.50;;
77701;SDS011;66868;42.708;23.404;2023-04-24T05:19:11;15.02;;;10.18;;
77701;SDS011;66868;42.708;23.404;2023-04-24T05:21:38;14.52;;;9.45;;
77701;SDS011;66868;42.708;23.404;2023-04-24T05:24:04;17.23;;;9.68;;
77701;SDS011;66868;42.708;23.404;2023-04-24T05:26:30;15.35;;;10.23;;
77701;SDS011;66868;42.708;23.404;2023-04-24T05:28:55;10.68;;;9.55;;
77701;SDS011;66868;42.708;23.404;2023-04-24T05:31:21;12.73;;;9.32;;
77701;SDS011;66868;42.708;23.404;2023-04-24T05:33:46;13.70;;;9.82;;
77701;SDS011;66868;42.708;23.404;2023-04-24T05:36:11;13.60;;;9.38;;
77701;SDS011;66868;42.708;23.404;2023-04-24T05:38:46;16.88;;;9.20;;
77701;SDS011;66868;42.708;23.404;2023-04-24T05:41:17;14.20;;;8.65;;
77701;SDS011;66868;42.708;23.404;2023-04-24T05:43:43;13.80;;;8.27;;
77701;SDS011;66868;42.708;23.404;2023-04-24T05:46:08;12.98;;;8.20;;
77701;SDS011;66868;42.708;23.404;2023-04-24T05:48:33;15.35;;;8.55;;
77701;SDS011;66868;42.708;23.404;2023-04-24T05:50:59;22.40;;;8.68;;
77701;SDS011;66868;42.708;23.404;2023-04-24T05:53:24;14.50;;;8.82;;
77701;SDS011;66868;42.708;23.404;2023-04-24T05:55:50;9.27;;;8.20;;
77701;SDS011;66868;42.708;23.404;2023-04-24T05:58:15;13.90;;;8.95;;
77701;SDS011;66868;42.708;23.404;2023-04-24T06:00:41;10.35;;;7.97;;
77701;SDS011;66868;42.708;23.404;2023-04-24T06:03:07;10.50;;;8.05;;
77701;SDS011;66868;42.708;23.404;2023-04-24T06:05:33;18.42;;;8.25;;
77701;SDS011;66868;42.708;23.404;2023-04-24T06:07:59;9.73;;;8.00;;
77701;SDS011;66868;42.708;23.404;2023-04-24T06:10:25;9.75;;;8.10;;
77701;SDS011;66868;42.708;23.404;2023-04-24T06:12:50;13.23;;;8.25;;
77701;SDS011;66868;42.708;23.404;2023-04-24T06:15:16;12.00;;;7.72;;
77701;SDS011;66868;42.708;23.404;2023-04-24T06:17:41;12.85;;;8.77;;
77701;SDS011;66868;42.708;23.404;2023-04-24T06:20:07;13.75;;;8.43;;
77701;SDS011;66868;42.708;23.404;2023-04-24T06:22:33;10.57;;;8.73;;
77701;SDS011;66868;42.708;23.404;2023-04-24T06:24:59;16.08;;;10.77;;
77701;SDS011;66868;42.708;23.404;2023-04-24T06:27:25;14.77;;;10.40;;
77701;SDS011;66868;42.708;23.404;2023-04-24T06:29:50;17.15;;;11.35;;
77701;SDS011;66868;42.708;23.404;2023-04-24T06:32:19;15.15;;;10.20;;
77701;SDS011;66868;42.708;23.404;2023-04-24T06:34:49;13.30;;;9.85;;
77701;SDS011;66868;42.708;23.404;2023-04-24T06:37:15;14.88;;;9.75;;
77701;SDS011;66868;42.708;23.404;2023-04-24T06:39:41;18.75;;;9.70;;
77701;SDS011;66868;42.708;23.404;2023-04-24T06:42:06;14.40;;;8.90;;
77701;SDS011;66868;42.708;23.404;2023-04-24T06:44:34;18.77;;;9.63;;
77701;SDS011;66868;42.708;23.404;2023-04-24T06:47:05;18.20;;;9.27;;
77701;SDS011;66868;42.708;23.404;2023-04-24T06:49:31;15.95;;;9.30;;
77701;SDS011;66868;42.708;23.404;2023-04-24T06:51:56;13.32;;;8.38;;
77701;SDS011;66868;42.708;23.404;2023-04-24T06:54:21;12.05;;;8.75;;
77701;SDS011;66868;42.708;23.404;2023-04-24T06:56:47;14.95;;;9.20;;
77701;SDS011;66868;42.708;23.404;2023-04-24T06:59:13;103.20;;;14.55;;
77701;SDS011;66868;42.708;23.404;2023-04-24T07:01:39;14.88;;;7.95;;
77701;SDS011;66868;42.708;23.404;2023-04-24T07:04:04;14.38;;;7.55;;
77701;SDS011;66868;42.708;23.404;2023-04-24T07:06:29;15.77;;;8.10;;
77701;SDS011;66868;42.708;23.404;2023-04-24T07:08:56;13.07;;;7.35;;
77701;SDS011;66868;42.708;23.404;2023-04-24T07:11:22;13.32;;;7.70;;
77701;SDS011;66868;42.708;23.404;2023-04-24T07:13:47;7.70;;;7.03;;
77701;SDS011;66868;42.708;23.404;2023-04-24T07:16:12;8.63;;;7.32;;
77701;SDS011;66868;42.708;23.404;2023-04-24T07:18:38;7.70;;;6.78;;
77701;SDS011;66868;42.708;23.404;2023-04-24T07:21:04;10.23;;;7.05;;
77701;SDS011;66868;42.708;23.404;2023-04-24T07:23:30;10.77;;;7.10;;
77701;SDS011;66868;42.708;23.404;2023-04-24T07:25:56;7.65;;;7.03;;
77701;SDS011;66868;42.708;23.404;2023-04-24T07:28:21;8.00;;;6.97;;
77701;SDS011;66868;42.708;23.404;2023-04-24T07:30:47;6.63;;;6.18;;
77701;SDS011;66868;42.708;23.404;2023-04-24T07:33:12;12.77;;;7.35;;
77701;SDS011;66868;42.708;23.404;2023-04-24T07:35:38;7.57;;;6.90;;
77701;SDS011;66868;42.708;23.404;2023-04-24T07:38:05;7.63;;;6.88;;
77701;SDS011;66868;42.708;23.404;2023-04-24T07:40:30;8.73;;;6.78;;
77701;SDS011;66868;42.708;23.404;2023-04-24T07:42:56;9.35;;;7.35;;
77701;SDS011;66868;42.708;23.404;2023-04-24T07:45:21;9.35;;;6.78;;
77701;SDS011;66868;42.708;23.404;2023-04-24T07:47:48;16.40;;;7.22;;
77701;SDS011;66868;42.708;23.404;2023-04-24T07:50:15;8.23;;;6.90;;
77701;SDS011;66868;42.708;23.404;2023-04-24T07:52:41;11.57;;;7.57;;
77701;SDS011;66868;42.708;23.404;2023-04-24T07:55:06;14.05;;;7.07;;
77701;SDS011;66868;42.708;23.404;2023-04-24T07:57:32;10.57;;;7.72;;
77701;SDS011;66868;42.708;23.404;2023-04-24T07:59:57;8.85;;;7.05;;
77701;SDS011;66868;42.708;23.404;2023-04-24T08:02:23;8.93;;;6.18;;
77701;SDS011;66868;42.708;23.404;2023-04-24T08:04:52;6.78;;;5.85;;
77701;SDS011;66868;42.708;23.404;2023-04-24T08:07:21;7.22;;;6.50;;
77701;SDS011;66868;42.708;23.404;2023-04-24T08:09:46;9.65;;;6.10;;
77701;SDS011;66868;42.708;23.404;2023-04-24T08:12:12;12.23;;;6.13;;
77701;SDS011;66868;42.708;23.404;2023-04-24T08:14:37;10.20;;;6.40;;
77701;SDS011;66868;42.708;23.404;2023-04-24T08:17:03;8.43;;;5.82;;
77701;SDS011;66868;42.708;23.404;2023-04-24T08:19:28;14.48;;;5.70;;
77701;SDS011;66868;42.708;23.404;2023-04-24T08:21:53;9.05;;;5.47;;
77701;SDS011;66868;42.708;23.404;2023-04-24T08:24:19;16.85;;;5.20;;
77701;SDS011;66868;42.708;23.404;2023-04-24T08:26:44;9.88;;;5.68;;
77701;SDS011;66868;42.708;23.404;2023-04-24T08:29:10;6.00;;;4.47;;
77701;SDS011;66868;42.708;23.404;2023-04-24T08:31:36;10.65;;;5.15;;
77701;SDS011;66868;42.708;23.404;2023-04-24T08:34:01;7.63;;;4.90;;
77701;SDS011;66868;42.708;23.404;2023-04-24T08:36:26;9.15;;;5.60;;
77701;SDS011;66868;42.708;23.404;2023-04-24T08:38:52;7.47;;;4.90;;
77701;SDS011;66868;42.708;23.404;2023-04-24T08:41:18;9.95;;;5.68;;
77701;SDS011;66868;42.708;23.404;2023-04-24T08:43:45;5.45;;;4.93;;
77701;SDS011;66868;42.708;23.404;2023-04-24T08:46:11;4.68;;;4.38;;
77701;SDS011;66868;42.708;23.404;2023-04-24T08:48:38;9.63;;;5.13;;
77701;SDS011;66868;42.708;23.404;2023-04-24T08:51:06;15.80;;;4.78;;
77701;SDS011;66868;42.708;23.404;2023-04-24T08:53:32;17.75;;;5.13;;
77701;SDS011;66868;42.708;23.404;2023-04-24T08:55:58;11.23;;;5.32;;
77701;SDS011;66868;42.708;23.404;2023-04-24T08:58:25;7.40;;;4.85;;
77701;SDS011;66868;42.708;23.404;2023-04-24T09:00:51;6.57;;;4.75;;
77701;SDS011;66868;42.708;23.404;2023-04-24T09:03:19;5.75;;;4.60;;
77701;SDS011;66868;42.708;23.404;2023-04-24T09:05:47;10.38;;;5.00;;
77701;SDS011;66868;42.708;23.404;2023-04-24T09:08:16;84.40;;;7.05;;
77701;SDS011;66868;42.708;23.404;2023-04-24T09:10:44;10.55;;;4.78;;
77701;SDS011;66868;42.708;23.404;2023-04-24T09:13:09;8.45;;;4.20;;
77701;SDS011;66868;42.708;23.404;2023-04-24T09:15:36;17.08;;;5.50;;
77701;SDS011;66868;42.708;23.404;2023-04-24T09:18:02;5.60;;;4.70;;
77701;SDS011;66868;42.708;23.404;2023-04-24T09:20:28;5.15;;;4.78;;
77701;SDS011;66868;42.708;23.404;2023-04-24T09:22:54;11.32;;;4.63;;
77701;SDS011;66868;42.708;23.404;2023-04-24T09:25:22;9.35;;;4.03;;
77701;SDS011;66868;42.708;23.404;2023-04-24T09:27:58;5.10;;;4.30;;
77701;SDS011;66868;42.708;23.404;2023-04-24T09:30:25;4.20;;;3.90;;
77701;SDS011;66868;42.708;23.404;2023-04-24T09:32:58;7.28;;;4.43;;
77701;SDS011;66868;42.708;23.404;2023-04-24T09:35:35;11.20;;;4.40;;
77701;SDS011;66868;42.708;23.404;2023-04-24T09:38:00;4.78;;;4.28;;
77701;SDS011;66868;42.708;23.404;2023-04-24T09:40:26;7.82;;;3.97;;
77701;SDS011;66868;42.708;23.404;2023-04-24T09:45:18;8.30;;;4.30;;
77701;SDS011;66868;42.708;23.404;2023-04-24T09:47:43;4.55;;;4.25;;
77701;SDS011;66868;42.708;23.404;2023-04-24T09:50:10;6.07;;;4.13;;
77701;SDS011;66868;42.708;23.404;2023-04-24T09:52:39;5.75;;;4.07;;
77701;SDS011;66868;42.708;23.404;2023-04-24T09:55:17;5.78;;;4.60;;
77701;SDS011;66868;42.708;23.404;2023-04-24T09:57:48;9.80;;;4.05;;
77701;SDS011;66868;42.708;23.404;2023-04-24T10:00:21;4.78;;;4.05;;
77701;SDS011;66868;42.708;23.404;2023-04-24T10:02:58;4.20;;;3.90;;
77701;SDS011;66868;42.708;23.404;2023-04-24T10:05:42;9.18;;;4.60;;
77701;SDS011;66868;42.708;23.404;2023-04-24T10:08:11;4.60;;;4.30;;
77701;SDS011;66868;42.708;23.404;2023-04-24T10:10:41;6.88;;;4.38;;
77701;SDS011;66868;42.708;23.404;2023-04-24T10:13:09;12.40;;;4.10;;
77701;SDS011;66868;42.708;23.404;2023-04-24T10:15:35;10.15;;;3.90;;
77701;SDS011;66868;42.708;23.404;2023-04-24T10:18:02;12.75;;;5.00;;
77701;SDS011;66868;42.708;23.404;2023-04-24T10:20:31;6.10;;;4.00;;
77701;SDS011;66868;42.708;23.404;2023-04-24T10:22:58;9.18;;;4.50;;
77701;SDS011;66868;42.708;23.404;2023-04-24T10:25:34;9.48;;;4.53;;
77701;SDS011;66868;42.708;23.404;2023-04-24T10:28:01;5.95;;;4.18;;
77701;SDS011;66868;42.708;23.404;2023-04-24T10:30:29;9.95;;;4.32;;
77701;SDS011;66868;42.708;23.404;2023-04-24T10:32:59;5.97;;;3.85;;
77701;SDS011;66868;42.708;23.404;2023-04-24T10:35:25;4.43;;;4.05;;
77701;SDS011;66868;42.708;23.404;2023-04-24T10:37:59;4.68;;;4.20;;
77701;SDS011;66868;42.708;23.404;2023-04-24T10:40:32;5.93;;;4.50;;
77701;SDS011;66868;42.708;23.404;2023-04-24T10:43:01;5.82;;;3.97;;
77701;SDS011;66868;42.708;23.404;2023-04-24T10:45:30;6.13;;;4.13;;
77701;SDS011;66868;42.708;23.404;2023-04-24T10:48:05;4.32;;;4.03;;
77701;SDS011;66868;42.708;23.404;2023-04-24T10:50:56;5.32;;;4.32;;
77701;SDS011;66868;42.708;23.404;2023-04-24T10:53:23;4.22;;;3.90;;
77701;SDS011;66868;42.708;23.404;2023-04-24T10:56:15;6.05;;;4.03;;
77701;SDS011;66868;42.708;23.404;2023-04-24T10:58:41;4.80;;;3.85;;
77701;SDS011;66868;42.708;23.404;2023-04-24T11:01:38;4.47;;;3.97;;
77701;SDS011;66868;42.708;23.404;2023-04-24T11:04:03;8.20;;;3.80;;
77701;SDS011;66868;42.708;23.404;2023-04-24T11:09:03;4.55;;;3.85;;
77701;SDS011;66868;42.708;23.404;2023-04-24T11:11:34;3.88;;;3.58;;
77701;SDS011;66868;42.708;23.404;2023-04-24T11:14:01;4.22;;;3.90;;
77701;SDS011;66868;42.708;23.404;2023-04-24T11:16:33;3.90;;;3.55;;
77701;SDS011;66868;42.708;23.404;2023-04-24T11:19:20;12.43;;;4.20;;
77701;SDS011;66868;42.708;23.404;2023-04-24T11:22:00;8.77;;;3.92;;
77701;SDS011;66868;42.708;23.404;2023-04-24T11:27:12;7.35;;;4.13;;
77701;SDS011;66868;42.708;23.404;2023-04-24T11:29:40;4.72;;;3.70;;
77701;SDS011;66868;42.708;23.404;2023-04-24T11:34:39;6.10;;;3.60;;
77701;SDS011;66868;42.708;23.404;2023-04-24T11:37:05;22.67;;;5.60;;
77701;SDS011;66868;42.708;23.404;2023-04-24T11:39:36;9.32;;;6.20;;
77701;SDS011;66868;42.708;23.404;2023-04-24T11:42:02;12.07;;;5.25;;
77701;SDS011;66868;42.708;23.404;2023-04-24T11:44:28;9.43;;;4.32;;
77701;SDS011;66868;42.708;23.404;2023-04-24T11:46:55;6.95;;;6.03;;
77701;SDS011;66868;42.708;23.404;2023-04-24T11:49:21;5.50;;;5.20;;
77701;SDS011;66868;42.708;23.404;2023-04-24T11:51:46;7.63;;;4.82;;
77701;SDS011;66868;42.708;23.404;2023-04-24T11:54:12;8.40;;;5.85;;
77701;SDS011;66868;42.708;23.404;2023-04-24T11:56:38;12.15;;;5.28;;
77701;SDS011;66868;42.708;23.404;2023-04-24T11:59:04;6.05;;;5.43;;
77701;SDS011;66868;42.708;23.404;2023-04-24T12:01:29;4.80;;;4.50;;
77701;SDS011;66868;42.708;23.404;2023-04-24T12:03:59;6.18;;;4.15;;
77701;SDS011;66868;42.708;23.404;2023-04-24T12:06:25;3.63;;;3.42;;
77701;SDS011;66868;42.708;23.404;2023-04-24T12:08:51;3.45;;;3.35;;
77701;SDS011;66868;42.708;23.404;2023-04-24T12:11:17;7.38;;;3.78;;
77701;SDS011;66868;42.708;23.404;2023-04-24T12:13:43;4.00;;;3.60;;
77701;SDS011;66868;42.708;23.404;2023-04-24T12:16:09;3.75;;;3.45;;
77701;SDS011;66868;42.708;23.404;2023-04-24T12:18:40;6.57;;;3.10;;
77701;SDS011;66868;42.708;23.404;2023-04-24T12:23:42;11.70;;;3.70;;
77701;SDS011;66868;42.708;23.404;2023-04-24T12:26:09;3.78;;;2.70;;
77701;SDS011;66868;42.708;23.404;2023-04-24T12:28:35;3.90;;;3.20;;
77701;SDS011;66868;42.708;23.404;2023-04-24T12:31:02;3.33;;;3.05;;
77701;SDS011;66868;42.708;23.404;2023-04-24T12:33:27;5.78;;;3.30;;
77701;SDS011;66868;42.708;23.404;2023-04-24T12:35:57;4.78;;;3.53;;
77701;SDS011;66868;42.708;23.404;2023-04-24T12:38:23;4.07;;;3.75;;
77701;SDS011;66868;42.708;23.404;2023-04-24T12:41:01;3.42;;;3.25;;
77701;SDS011;66868;42.708;23.404;2023-04-24T12:43:31;2.88;;;2.70;;
77701;SDS011;66868;42.708;23.404;2023-04-24T12:45:57;3.42;;;3.03;;
77701;SDS011;66868;42.708;23.404;2023-04-24T12:48:24;3.30;;;2.78;;
77701;SDS011;66868;42.708;23.404;2023-04-24T12:50:50;3.85;;;3.20;;
77701;SDS011;66868;42.708;23.404;2023-04-24T12:53:15;6.60;;;3.28;;
77701;SDS011;66868;42.708;23.404;2023-04-24T12:55:41;5.30;;;2.83;;
77701;SDS011;66868;42.708;23.404;2023-04-24T12:58:06;3.75;;;2.78;;
77701;SDS011;66868;42.708;23.404;2023-04-24T13:00:32;2.60;;;2.35;;
77701;SDS011;66868;42.708;23.404;2023-04-24T13:02:58;6.88;;;2.88;;
77701;SDS011;66868;42.708;23.404;2023-04-24T13:05:23;3.63;;;3.10;;
77701;SDS011;66868;42.708;23.404;2023-04-24T13:07:48;3.15;;;2.78;;
77701;SDS011;66868;42.708;23.404;2023-04-24T13:10:14;6.72;;;3.13;;
77701;SDS011;66868;42.708;23.404;2023-04-24T13:12:40;4.18;;;3.50;;
77701;SDS011;66868;42.708;23.404;2023-04-24T13:15:06;3.88;;;3.20;;
77701;SDS011;66868;42.708;23.404;2023-04-24T13:17:32;3.00;;;2.80;;
77701;SDS011;66868;42.708;23.404;2023-04-24T13:19:58;2.47;;;2.38;;
77701;SDS011;66868;42.708;23.404;2023-04-24T13:22:23;3.65;;;2.65;;
77701;SDS011;66868;42.708;23.404;2023-04-24T13:24:49;2.88;;;2.60;;
77701;SDS011;66868;42.708;23.404;2023-04-24T13:27:15;2.58;;;2.38;;
77701;SDS011;66868;42.708;23.404;2023-04-24T13:29:41;2.20;;;2.08;;
77701;SDS011;66868;42.708;23.404;2023-04-24T13:32:07;2.85;;;2.17;;
77701;SDS011;66868;42.708;23.404;2023-04-24T13:34:33;6.00;;;2.30;;
77701;SDS011;66868;42.708;23.404;2023-04-24T13:36:59;2.88;;;1.92;;
77701;SDS011;66868;42.708;23.404;2023-04-24T13:39:25;5.22;;;2.30;;
77701;SDS011;66868;42.708;23.404;2023-04-24T13:41:51;1.70;;;1.60;;
77701;SDS011;66868;42.708;23.404;2023-04-24T13:44:17;4.97;;;1.77;;
77701;SDS011;66868;42.708;23.404;2023-04-24T13:46:45;4.20;;;1.60;;
77701;SDS011;66868;42.708;23.404;2023-04-24T13:49:12;2.67;;;1.50;;
77701;SDS011;66868;42.708;23.404;2023-04-24T13:51:38;2.28;;;1.25;;
77701;SDS011;66868;42.708;23.404;2023-04-24T13:54:05;9.90;;;1.73;;
77701;SDS011;66868;42.708;23.404;2023-04-24T13:56:30;1.20;;;1.20;;
77701;SDS011;66868;42.708;23.404;2023-04-24T13:58:56;5.35;;;1.63;;
77701;SDS011;66868;42.708;23.404;2023-04-24T14:01:21;2.53;;;1.63;;
77701;SDS011;66868;42.708;23.404;2023-04-24T14:03:53;2.17;;;1.90;;
77701;SDS011;66868;42.708;23.404;2023-04-24T14:06:20;3.70;;;1.95;;
77701;SDS011;66868;42.708;23.404;2023-04-24T14:08:47;1.88;;;1.67;;
77701;SDS011;66868;42.708;23.404;2023-04-24T14:11:13;4.22;;;2.35;;
77701;SDS011;66868;42.708;23.404;2023-04-24T14:13:39;1.80;;;1.70;;
77701;SDS011;66868;42.708;23.404;2023-04-24T14:16:06;8.25;;;2.38;;
77701;SDS011;66868;42.708;23.404;2023-04-24T14:18:32;2.10;;;2.00;;
77701;SDS011;66868;42.708;23.404;2023-04-24T14:20:57;4.32;;;2.25;;
77701;SDS011;66868;42.708;23.404;2023-04-24T14:23:23;6.75;;;2.05;;
77701;SDS011;66868;42.708;23.404;2023-04-24T14:25:48;2.60;;;2.05;;
77701;SDS011;66868;42.708;23.404;2023-04-24T14:28:17;3.35;;;2.10;;
77701;SDS011;66868;42.708;23.404;2023-04-24T14:30:43;3.63;;;1.92;;
77701;SDS011;66868;42.708;23.404;2023-04-24T14:33:08;5.07;;;1.98;;
77701;SDS011;66868;42.708;23.404;2023-04-24T14:35:34;4.50;;;2.60;;
77701;SDS011;66868;42.708;23.404;2023-04-24T14:38:00;2.30;;;2.10;;